Time;durP1;ratioP1;P1;durP2;ratioP2;P2;SDS_P1;SDS_P2;PMS_P1;PMS_P2;Temp;Humidity;BMP_temperature;BMP_pressure;BME280_temperature;BME280_humidity;BME280_pressure;Samples;Min_cycle;Max_cycle;Signal;HPM_P1;HPM_P2
2023/04/08 00:01:30;;;;;;;23.93;14.77;;;;;;;7.56;69.88;94932.81;5071739;28;20490;-79
2023/04/08 00:03:56;;;;;;;14.53;12.47;;;;;;;7.59;69.93;94929.97;5071712;28;20437;-79
2023/04/08 00:06:25;;;;;;;16.90;13.53;;;;;;;7.62;69.51;94927.16;5071581;28;20504;-79
2023/04/08 00:08:52;;;;;;;18.60;14.47;;;;;;;7.65;70.07;94937.38;5071890;28;20429;-79
2023/04/08 00:11:19;;;;;;;17.20;13.77;;;;;;;7.66;69.24;94940.81;5071532;28;20437;-80
2023/04/08 00:13:46;;;;;;;17.47;14.97;;;;;;;7.65;68.82;94931.31;5071749;28;20433;-79
2023/04/08 00:16:12;;;;;;;23.23;18.50;;;;;;;7.59;69.19;94943.03;5071564;28;20542;-79
2023/04/08 00:18:40;;;;;;;23.20;17.67;;;;;;;7.51;69.93;94940.13;5071443;28;20442;-79
2023/04/08 00:21:07;;;;;;;26.20;20.33;;;;;;;7.48;70.46;94945.56;5071284;28;20444;-79
2023/04/08 00:23:35;;;;;;;27.93;20.37;;;;;;;7.42;70.75;94941.63;5071478;28;20473;-79
2023/04/08 00:26:02;;;;;;;32.40;22.90;;;;;;;7.31;71.48;94941.56;5071253;28;20453;-79
2023/04/08 00:28:28;;;;;;;29.70;24.30;;;;;;;7.34;72.18;94946.56;5071633;28;20440;-80
2023/04/08 00:30:56;;;;;;;38.23;24.30;;;;;;;7.28;72.65;94947.00;5071208;28;20446;-79
2023/04/08 00:33:24;;;;;;;32.70;23.03;;;;;;;7.27;72.72;94941.91;5071250;28;20441;-79
2023/04/08 00:35:51;;;;;;;27.97;23.60;;;;;;;7.25;72.84;94949.84;5052286;28;20489;-79
2023/04/08 00:38:18;;;;;;;29.27;23.33;;;;;;;7.28;72.38;94946.19;5071205;28;20553;-78
2023/04/08 00:40:46;;;;;;;33.70;26.20;;;;;;;7.29;72.71;94945.25;5071129;28;20452;-80
2023/04/08 00:43:15;;;;;;;34.93;23.73;;;;;;;7.27;72.55;94947.13;5071905;28;20448;-79
2023/04/08 00:45:42;;;;;;;30.70;23.00;;;;;;;7.31;71.99;94943.34;5074913;28;20445;-79
2023/04/08 00:48:08;;;;;;;36.17;22.90;;;;;;;7.32;72.06;94950.25;5075058;28;20779;-78
2023/04/08 00:50:35;;;;;;;32.10;24.60;;;;;;;7.33;72.62;94960.56;5074827;28;20463;-79
2023/04/08 00:53:02;;;;;;;31.67;24.53;;;;;;;7.37;72.90;94956.78;5074952;28;20796;-79
2023/04/08 00:55:29;;;;;;;32.73;25.00;;;;;;;7.37;72.32;94955.97;5074448;28;20501;-78
2023/04/08 00:57:58;;;;;;;28.63;22.03;;;;;;;7.37;72.64;94945.53;5074775;28;20441;-79
2023/04/08 01:00:25;;;;;;;30.37;23.20;;;;;;;7.37;73.10;94953.34;5074468;28;20491;-79
2023/04/08 01:03:01;;;;;;;27.97;20.87;;;;;;;7.36;73.16;94947.28;5074545;28;20453;-79
2023/04/08 01:05:37;;;;;;;32.43;21.77;;;;;;;7.39;73.24;94949.69;5074385;28;20859;-79
2023/04/08 01:08:06;;;;;;;26.63;18.30;;;;;;;7.42;73.53;94951.25;5074342;28;20815;-79
2023/04/08 01:10:37;;;;;;;26.33;19.37;;;;;;;7.42;73.19;94952.06;5074693;28;20506;-79
2023/04/08 01:13:10;;;;;;;19.17;15.77;;;;;;;7.42;73.40;94946.84;5055552;28;20491;-78
2023/04/08 01:15:40;;;;;;;20.87;16.10;;;;;;;7.37;73.08;94942.91;5074259;28;20485;-79
2023/04/08 01:18:11;;;;;;;16.87;14.13;;;;;;;7.39;72.79;94948.84;5074508;28;20436;-79
2023/04/08 01:20:40;;;;;;;15.13;13.43;;;;;;;7.42;72.72;94941.63;5074384;28;20940;-79
2023/04/08 01:23:13;;;;;;;19.60;13.80;;;;;;;7.34;72.40;94946.56;5039355;28;20945;-80
2023/04/08 01:25:40;;;;;;;17.43;12.93;;;;;;;7.33;72.00;94949.28;5074230;28;20449;-79
2023/04/08 01:28:12;;;;;;;15.23;12.57;;;;;;;7.28;72.62;94951.41;5074245;28;20442;-78
2023/04/08 01:30:40;;;;;;;14.43;12.40;;;;;;;7.25;72.64;94949.84;5074269;28;20448;-79
2023/04/08 01:33:08;;;;;;;17.50;14.87;;;;;;;7.26;73.13;94945.47;5074064;28;21001;-79
2023/04/08 01:35:36;;;;;;;17.70;13.57;;;;;;;7.23;72.92;94945.66;5074060;28;20492;-78
2023/04/08 01:38:03;;;;;;;18.77;15.40;;;;;;;7.23;72.75;94951.72;5074183;28;20801;-79
2023/04/08 01:40:30;;;;;;;18.23;14.23;;;;;;;7.17;73.18;94954.75;5055006;28;20440;-79
2023/04/08 01:43:00;;;;;;;17.07;14.30;;;;;;;7.16;72.31;94953.09;5073849;28;20452;-79
2023/04/08 01:45:30;;;;;;;19.77;15.00;;;;;;;7.13;72.70;94961.13;5074368;28;20801;-79
2023/04/08 01:47:58;;;;;;;17.17;14.43;;;;;;;7.10;73.07;94949.13;5074010;28;20436;-79
2023/04/08 01:50:26;;;;;;;17.67;15.10;;;;;;;6.88;71.89;94958.56;5073759;28;20453;-79
2023/04/08 01:52:54;;;;;;;18.57;14.63;;;;;;;6.93;71.87;94956.47;5073696;28;20531;-79
2023/04/08 01:55:21;;;;;;;19.73;14.10;;;;;;;6.87;71.17;94964.72;5073002;28;20480;-78
2023/04/08 01:57:51;;;;;;;16.23;14.57;;;;;;;6.79;71.79;94963.47;5073659;28;20468;-78
2023/04/08 02:00:21;;;;;;;14.63;13.17;;;;;;;6.76;71.57;94966.31;5054929;28;20524;-79
2023/04/08 02:02:50;;;;;;;17.63;14.70;;;;;;;6.79;71.18;94970.47;5073588;28;20991;-79
2023/04/08 02:05:17;;;;;;;20.67;14.80;;;;;;;6.76;72.01;94973.28;5073507;28;20448;-78
2023/04/08 02:07:45;;;;;;;16.87;13.80;;;;;;;6.69;71.84;94972.88;5054563;28;20441;-79
2023/04/08 02:10:12;;;;;;;18.00;14.73;;;;;;;6.59;72.09;94982.25;5054464;28;20490;-79
2023/04/08 02:12:39;;;;;;;17.10;12.87;;;;;;;6.58;72.97;94977.97;5073503;28;20455;-78
2023/04/08 02:15:07;;;;;;;15.67;13.40;;;;;;;6.60;72.70;94975.25;5073491;28;20483;-80
2023/04/08 02:17:41;;;;;;;17.33;13.70;;;;;;;6.61;73.16;94980.38;5054232;28;20490;-78
2023/04/08 02:20:12;;;;;;;18.10;14.10;;;;;;;6.62;72.61;94981.19;5073788;28;20525;-79
2023/04/08 02:22:48;;;;;;;15.07;13.50;;;;;;;6.66;72.86;94978.31;5073074;28;20451;-79
2023/04/08 02:25:17;;;;;;;20.23;13.53;;;;;;;6.72;73.57;94977.88;5073271;28;20475;-78
2023/04/08 02:27:45;;;;;;;17.07;13.67;;;;;;;6.75;72.77;94976.84;5072987;28;20845;-79
2023/04/08 02:30:13;;;;;;;16.03;13.40;;;;;;;6.76;72.44;94973.28;5073050;28;20531;-79
2023/04/08 02:32:41;;;;;;;21.27;14.80;;;;;;;6.86;71.28;94969.09;5072994;28;20510;-79
2023/04/08 02:35:11;;;;;;;17.53;12.50;;;;;;;6.97;71.91;94977.03;5072498;28;20440;-79
2023/04/08 02:37:38;;;;;;;21.90;13.60;;;;;;;7.04;71.66;94977.44;5053861;28;20436;-79
2023/04/08 02:40:21;;;;;;;18.87;13.83;;;;;;;7.08;71.66;94973.66;5072928;28;20444;-78
2023/04/08 02:42:48;;;;;;;16.50;13.50;;;;;;;7.11;71.38;94970.84;5072572;28;20445;-80
2023/04/08 02:45:15;;;;;;;23.77;16.57;;;;;;;7.17;71.04;94970.41;5072530;28;20495;-79
2023/04/08 02:47:42;;;;;;;23.57;16.30;;;;;;;7.15;71.75;94980.13;5073068;28;20787;-79
2023/04/08 02:50:11;;;;;;;19.47;16.10;;;;;;;7.14;71.58;94981.06;5072454;28;20448;-79
2023/04/08 02:52:38;;;;;;;19.70;14.17;;;;;;;7.12;72.15;94970.72;5072881;28;20511;-79
2023/04/08 02:55:08;;;;;;;19.67;15.70;;;;;;;7.02;71.73;94974.94;5072427;28;20946;-79
2023/04/08 02:57:35;;;;;;;19.63;16.90;;;;;;;7.03;71.72;94975.78;5072305;28;20832;-79
2023/04/08 03:00:04;;;;;;;22.03;15.97;;;;;;;7.04;72.52;94967.00;5072395;28;20507;-79
2023/04/08 03:02:30;;;;;;;21.40;15.43;;;;;;;7.08;72.46;94978.88;5072238;28;20440;-79
2023/04/08 03:04:57;;;;;;;22.53;16.40;;;;;;;6.88;73.16;94982.03;5072091;28;20920;-79
2023/04/08 03:07:26;;;;;;;23.17;17.70;;;;;;;6.71;74.53;94980.59;5052429;28;20506;-79
2023/04/08 03:09:53;;;;;;;21.10;16.60;;;;;;;6.74;75.24;94976.00;5072031;28;20433;-79
2023/04/08 03:12:20;;;;;;;21.23;17.00;;;;;;;6.73;75.32;94979.56;5072408;28;20476;-79
2023/04/08 03:14:47;;;;;;;20.57;17.27;;;;;;;6.75;74.36;94982.06;5072132;28;20544;-79
2023/04/08 03:17:14;;;;;;;29.47;19.70;;;;;;;6.67;74.60;94979.13;5071954;28;20561;-79
2023/04/08 03:19:41;;;;;;;28.10;20.10;;;;;;;6.61;75.13;94974.31;5072331;28;20809;-79
2023/04/08 03:22:08;;;;;;;26.23;21.73;;;;;;;6.64;74.90;94968.88;5071932;28;20496;-78
2023/04/08 03:24:37;;;;;;;27.30;20.47;;;;;;;6.74;74.47;94976.00;5071895;28;20505;-79
2023/04/08 03:27:04;;;;;;;24.83;19.33;;;;;;;6.75;75.20;94974.22;5072126;28;20440;-79
2023/04/08 03:29:30;;;;;;;23.23;20.00;;;;;;;6.78;75.22;94972.25;5071703;28;21008;-79
2023/04/08 03:31:57;;;;;;;27.17;20.53;;;;;;;6.91;74.97;94987.03;5069045;28;20463;-79
2023/04/08 03:34:24;;;;;;;24.77;19.83;;;;;;;6.96;74.52;94987.56;5071723;28;20836;-79
2023/04/08 03:36:51;;;;;;;28.03;20.50;;;;;;;7.02;74.44;94989.75;5071368;28;20484;-79
2023/04/08 03:39:18;;;;;;;24.67;19.70;;;;;;;7.07;74.65;94979.81;5071707;28;20445;-79
2023/04/08 03:41:46;;;;;;;26.10;19.50;;;;;;;7.02;74.68;94979.31;5072039;28;20789;-78
2023/04/08 03:44:13;;;;;;;24.87;18.60;;;;;;;7.07;74.67;94982.44;5072162;28;20490;-79
2023/04/08 03:46:39;;;;;;;29.80;20.70;;;;;;;7.07;74.03;94985.88;5036786;28;20451;-78
2023/04/08 03:49:06;;;;;;;24.83;19.13;;;;;;;7.09;74.13;94975.34;5071893;28;20445;-79
2023/04/08 03:51:33;;;;;;;23.20;17.73;;;;;;;7.11;74.27;94983.88;5071691;28;20540;-79
2023/04/08 03:54:00;;;;;;;24.97;17.17;;;;;;;7.09;73.95;94985.78;5071731;28;20931;-79
2023/04/08 03:56:26;;;;;;;20.37;17.03;;;;;;;7.00;73.69;94986.41;5072026;28;20976;-78
2023/04/08 03:58:55;;;;;;;27.30;19.50;;;;;;;7.07;73.76;94975.44;5071748;28;20468;-79
2023/04/08 04:01:21;;;;;;;23.80;19.40;;;;;;;7.11;73.64;94973.44;5036310;28;20809;-79
2023/04/08 04:03:48;;;;;;;26.63;20.23;;;;;;;7.12;73.89;94975.94;5052864;28;20942;-79
2023/04/08 04:06:15;;;;;;;21.67;17.80;;;;;;;7.15;73.72;94985.34;5071796;28;20448;-78
2023/04/08 04:08:42;;;;;;;24.90;18.53;;;;;;;7.16;73.62;94971.34;5071951;28;20455;-79
2023/04/08 04:11:08;;;;;;;30.63;22.27;;;;;;;7.18;73.71;94979.91;5072170;28;20464;-80
2023/04/08 04:13:35;;;;;;;40.47;27.07;;;;;;;7.12;74.02;94975.13;5071558;28;20457;-80
2023/04/08 04:16:04;;;;;;;34.60;25.50;;;;;;;7.11;74.00;94983.88;5071336;28;20484;-79
2023/04/08 04:18:30;;;;;;;35.17;26.70;;;;;;;6.95;74.75;94986.75;5072856;28;20451;-79
2023/04/08 04:20:57;;;;;;;34.10;26.87;;;;;;;6.95;74.88;94978.09;5075906;28;20445;-79
2023/04/08 04:23:24;;;;;;;46.03;27.40;;;;;;;7.02;75.12;94989.75;5056527;28;20924;-79
2023/04/08 04:25:51;;;;;;;36.30;25.70;;;;;;;7.02;74.96;94994.97;5075521;28;20451;-79
2023/04/08 04:28:18;;;;;;;42.03;27.13;;;;;;;7.02;74.97;94994.97;5075585;28;20502;-79
2023/04/08 04:30:45;;;;;;;33.80;25.40;;;;;;;7.08;74.96;94999.75;5075461;28;20445;-79
2023/04/08 04:33:13;;;;;;;33.30;24.97;;;;;;;6.95;75.99;94998.94;5075328;28;20441;-78
2023/04/08 04:35:40;;;;;;;33.55;24.80;;;;;;;6.68;77.59;94989.47;5075366;28;20503;-79
2023/04/08 04:38:11;;;;;;;30.40;21.80;;;;;;;6.69;78.95;94991.13;5075164;28;20539;-79
2023/04/08 04:40:38;;;;;;;27.33;20.40;;;;;;;6.62;79.52;94995.06;5075389;28;20539;-80
2023/04/08 04:43:05;;;;;;;24.00;19.10;;;;;;;6.69;79.00;94987.69;5075382;28;20433;-79
2023/04/08 04:45:32;;;;;;;29.27;20.20;;;;;;;6.74;78.69;94990.81;5075113;28;20455;-79
2023/04/08 04:47:59;;;;;;;29.47;23.03;;;;;;;6.73;79.17;94979.56;5075061;28;20444;-79
2023/04/08 04:50:27;;;;;;;33.23;23.97;;;;;;;6.71;79.29;94981.44;5075070;28;20448;-79
2023/04/08 04:52:54;;;;;;;33.60;24.37;;;;;;;6.79;79.12;94999.16;5075158;28;20448;-78
2023/04/08 04:55:21;;;;;;;30.70;23.20;;;;;;;6.84;79.31;94997.91;5074646;28;20554;-79
2023/04/08 04:57:48;;;;;;;36.33;25.60;;;;;;;6.90;78.44;95006.22;5074868;28;20569;-79
2023/04/08 05:00:15;;;;;;;39.90;26.80;;;;;;;6.92;78.52;94999.13;5075205;28;20478;-79
2023/04/08 05:02:42;;;;;;;34.70;25.40;;;;;;;6.92;78.19;94991.31;5074772;28;20444;-79
2023/04/08 05:05:09;;;;;;;40.27;26.60;;;;;;;7.01;77.91;95003.75;5074562;28;20447;-79
2023/04/08 05:07:37;;;;;;;34.77;26.90;;;;;;;7.09;78.03;94998.81;5074636;28;20433;-79
2023/04/08 05:10:05;;;;;;;39.60;25.37;;;;;;;7.17;77.77;94999.13;5074990;28;20518;-79
2023/04/08 05:12:32;;;;;;;33.90;25.57;;;;;;;7.12;77.34;94996.81;5074811;28;20432;-79
2023/04/08 05:14:59;;;;;;;51.03;27.33;;;;;;;7.03;76.81;94996.63;5074671;28;20840;-79
2023/04/08 05:17:26;;;;;;;49.13;31.00;;;;;;;7.05;77.19;95007.81;5074489;28;20483;-79
2023/04/08 05:19:53;;;;;;;53.43;37.43;;;;;;;6.93;77.89;94995.59;5074320;28;20440;-79
2023/04/08 05:22:20;;;;;;;49.37;32.60;;;;;;;6.90;78.11;94995.81;5074579;28;20942;-79
2023/04/08 05:24:48;;;;;;;53.97;37.07;;;;;;;6.91;78.03;94994.84;5074424;28;20445;-79
2023/04/08 05:27:14;;;;;;;39.10;29.17;;;;;;;6.98;78.92;94994.34;5039080;28;20445;-79
2023/04/08 05:29:41;;;;;;;48.13;25.93;;;;;;;6.98;78.06;94991.75;5073169;28;20449;-78
2023/04/08 05:32:08;;;;;;;38.57;26.60;;;;;;;7.01;77.68;94993.31;5074230;28;20810;-79
2023/04/08 05:34:35;;;;;;;58.17;35.87;;;;;;;7.14;76.89;94999.31;5074083;28;20859;-79
2023/04/08 05:37:01;;;;;;;50.83;34.17;;;;;;;7.10;77.28;95003.09;5074299;28;20481;-79
2023/04/08 05:39:28;;;;;;;37.80;29.40;;;;;;;7.15;77.54;94996.59;5055592;28;20436;-79
2023/04/08 05:41:56;;;;;;;49.10;30.00;;;;;;;7.23;77.46;95003.06;5074204;28;20451;-78
2023/04/08 05:44:23;;;;;;;43.33;29.27;;;;;;;7.30;77.25;95005.16;5074164;28;20444;-79
2023/04/08 05:46:50;;;;;;;54.47;37.33;;;;;;;7.25;77.50;94993.38;5074060;28;20452;-79
2023/04/08 05:49:17;;;;;;;50.77;39.30;;;;;;;7.29;77.28;94998.28;5073698;28;20502;-79
2023/04/08 05:51:43;;;;;;;44.43;35.80;;;;;;;7.39;77.07;94986.22;5073998;28;21015;-79
2023/04/08 05:54:10;;;;;;;49.37;31.43;;;;;;;7.49;75.59;94996.00;5074259;28;20845;-79
2023/04/08 05:56:37;;;;;;;36.47;26.00;;;;;;;7.56;74.98;94995.50;5073973;28;20495;-79
2023/04/08 05:59:05;;;;;;;29.10;22.90;;;;;;;7.60;74.10;94996.94;5074278;28;20446;-79
2023/04/08 06:01:32;;;;;;;27.30;22.17;;;;;;;7.62;74.25;94989.00;5074309;28;20440;-79
2023/04/08 06:03:59;;;;;;;28.00;20.23;;;;;;;7.68;73.03;94994.59;5073883;28;20830;-79
2023/04/08 06:06:25;;;;;;;24.20;19.27;;;;;;;7.80;72.48;94994.66;5073495;28;20502;-79
2023/04/08 06:08:52;;;;;;;33.10;23.17;;;;;;;7.81;72.11;94993.72;5073869;28;20451;-79
2023/04/08 06:11:19;;;;;;;37.33;21.67;;;;;;;7.57;71.07;94998.94;5073672;28;20450;-78
2023/04/08 06:13:46;;;;;;;38.53;22.00;;;;;;;7.62;71.73;95002.88;5054563;28;20436;-78
2023/04/08 06:16:17;;;;;;;33.03;23.30;;;;;;;7.70;71.97;94994.50;5073104;28;20465;-79
2023/04/08 06:18:43;;;;;;;43.90;27.53;;;;;;;7.78;71.68;94997.38;5073823;28;20473;-79
2023/04/08 06:21:11;;;;;;;27.03;19.93;;;;;;;7.72;72.63;94990.81;5073427;28;20449;-79
2023/04/08 06:23:38;;;;;;;27.33;20.20;;;;;;;7.88;72.81;94987.13;5073423;28;20536;-79
2023/04/08 06:26:04;;;;;;;27.17;20.70;;;;;;;7.83;73.79;94997.06;5073212;28;20446;-79
2023/04/08 06:28:32;;;;;;;32.33;20.37;;;;;;;7.98;74.17;94996.78;5072976;28;20533;-79
2023/04/08 06:30:59;;;;;;;21.67;17.30;;;;;;;8.17;73.96;94984.97;5073054;28;20447;-79
2023/04/08 06:33:27;;;;;;;23.57;17.50;;;;;;;8.11;75.07;94998.50;5073375;28;20466;-79
2023/04/08 06:36:02;;;;;;;20.00;16.97;;;;;;;8.30;75.16;94997.00;5073301;28;20940;-78
2023/04/08 06:38:29;;;;;;;23.23;17.50;;;;;;;8.38;75.17;94999.09;5073132;28;20514;-80
2023/04/08 06:40:56;;;;;;;21.40;17.37;;;;;;;8.48;73.97;94994.84;5072637;28;20447;-79
2023/04/08 06:43:23;;;;;;;23.07;16.70;;;;;;;8.45;73.51;95005.53;5073310;28;20489;-78
2023/04/08 06:45:50;;;;;;;25.27;17.27;;;;;;;8.46;72.53;95007.22;5072982;28;20941;-79
2023/04/08 06:48:16;;;;;;;23.30;16.07;;;;;;;8.48;72.00;95007.94;5072906;28;20447;-79
2023/04/08 06:50:45;;;;;;;23.43;15.80;;;;;;;8.52;72.22;95004.13;5072823;28;20502;-79
2023/04/08 06:53:11;;;;;;;26.03;18.00;;;;;;;8.63;71.84;94998.91;5072763;28;20537;-79
2023/04/08 06:55:38;;;;;;;24.60;18.53;;;;;;;8.74;71.19;95007.75;5072852;28;20466;-78
2023/04/08 06:58:05;;;;;;;56.50;32.50;;;;;;;8.90;71.63;95001.22;5072649;28;20489;-78
2023/04/08 07:00:32;;;;;;;50.80;32.10;;;;;;;9.03;71.34;95001.13;5072690;28;20446;-78
2023/04/08 07:02:59;;;;;;;36.37;22.00;;;;;;;9.10;70.48;95001.50;5072639;28;20497;-78
2023/04/08 07:05:26;;;;;;;42.63;26.40;;;;;;;9.02;70.41;95004.72;5053743;28;20858;-78
2023/04/08 07:07:54;;;;;;;30.40;19.03;;;;;;;8.93;71.66;95006.22;5072456;28;20451;-78
2023/04/08 07:10:21;;;;;;;35.83;24.83;;;;;;;9.05;73.27;95001.00;5072515;28;20844;-79
2023/04/08 07:12:48;;;;;;;32.20;22.67;;;;;;;9.13;72.48;95007.31;5072363;28;20995;-78
2023/04/08 07:15:14;;;;;;;35.73;21.37;;;;;;;9.22;72.00;95000.53;5036668;28;20495;-79
2023/04/08 07:17:41;;;;;;;29.63;20.37;;;;;;;9.17;70.15;94994.81;5072514;28;20483;-79
2023/04/08 07:20:09;;;;;;;25.33;18.03;;;;;;;9.26;71.22;95002.81;5053543;28;20585;-79
2023/04/08 07:22:36;;;;;;;23.10;17.53;;;;;;;9.38;71.31;95011.50;5072137;28;20447;-77
2023/04/08 07:25:04;;;;;;;26.23;16.37;;;;;;;9.52;70.60;95010.38;5072604;28;20878;-79
2023/04/08 07:27:31;;;;;;;25.07;17.80;;;;;;;9.46;70.56;94998.63;5053431;28;20454;-79
2023/04/08 07:29:58;;;;;;;24.03;17.70;;;;;;;9.75;70.52;95011.19;5036640;28;20522;-79
2023/04/08 07:32:25;;;;;;;23.00;16.70;;;;;;;9.85;69.53;95009.53;5071959;28;20863;-79
2023/04/08 07:34:51;;;;;;;24.03;19.70;;;;;;;9.94;68.11;95006.16;5036799;28;20461;-79
2023/04/08 07:37:18;;;;;;;31.70;21.43;;;;;;;10.09;67.79;95011.94;5071715;28;20488;-78
2023/04/08 07:39:45;;;;;;;24.47;18.30;;;;;;;10.29;68.39;95010.38;5072310;28;20452;-79
2023/04/08 07:42:13;;;;;;;23.30;18.10;;;;;;;10.34;66.39;95022.13;5072133;28;20444;-79
2023/04/08 07:44:40;;;;;;;22.83;16.77;;;;;;;10.46;67.14;95015.91;5071889;28;20494;-78
2023/04/08 07:47:07;;;;;;;21.50;16.70;;;;;;;10.55;66.11;95017.75;5072094;28;20433;-79
2023/04/08 07:49:33;;;;;;;22.80;17.70;;;;;;;10.69;65.69;95021.03;5071956;28;20838;-79
2023/04/08 07:52:00;;;;;;;30.03;19.23;;;;;;;10.75;64.74;95024.00;5072164;28;20781;-79
2023/04/08 07:54:27;;;;;;;25.07;17.93;;;;;;;10.75;64.24;95023.16;5071497;28;20810;-79
2023/04/08 07:56:54;;;;;;;22.77;17.40;;;;;;;10.76;64.26;95032.69;5072147;28;20440;-78
2023/04/08 07:59:22;;;;;;;21.10;17.20;;;;;;;10.75;63.43;95031.03;5071806;28;20448;-78
2023/04/08 08:01:49;;;;;;;20.90;15.70;;;;;;;10.71;62.87;95030.47;5071957;28;20440;-78
2023/04/08 08:04:15;;;;;;;22.37;16.97;;;;;;;10.64;64.25;95038.94;5071681;28;20440;-78
2023/04/08 08:06:42;;;;;;;18.23;16.13;;;;;;;10.81;63.88;95033.97;5071928;28;20506;-79
2023/04/08 08:09:09;;;;;;;22.67;15.07;;;;;;;10.99;63.60;95036.03;5071857;28;20441;-78
2023/04/08 08:11:36;;;;;;;21.90;15.67;;;;;;;11.14;62.75;95030.31;5072076;28;20445;-78
2023/04/08 08:14:03;;;;;;;19.13;15.13;;;;;;;11.27;60.88;95030.06;5072037;28;20456;-79
2023/04/08 08:16:32;;;;;;;16.77;14.53;;;;;;;11.36;61.79;95039.00;5072089;28;20475;-79
2023/04/08 08:18:59;;;;;;;26.13;15.93;;;;;;;11.41;61.22;95036.78;5071341;28;20523;-79
2023/04/08 08:21:26;;;;;;;17.03;14.90;;;;;;;11.57;60.33;95039.78;5036338;28;20453;-78
2023/04/08 08:23:53;;;;;;;17.70;13.90;;;;;;;11.67;59.53;95032.75;5036591;28;20499;-78
2023/04/08 08:26:21;;;;;;;18.57;14.83;;;;;;;11.75;58.86;95026.81;5071491;28;20440;-78
2023/04/08 08:28:47;;;;;;;16.07;14.23;;;;;;;11.86;59.25;95033.81;5071687;28;20531;-78
2023/04/08 08:31:14;;;;;;;19.30;15.10;;;;;;;11.91;59.04;95032.44;5071627;28;20962;-78
2023/04/08 08:33:42;;;;;;;26.53;16.20;;;;;;;11.88;58.07;95037.97;5071821;28;21032;-77
2023/04/08 08:36:09;;;;;;;21.87;16.70;;;;;;;11.88;59.38;95031.88;5071630;28;20440;-78
2023/04/08 08:38:36;;;;;;;17.63;15.00;;;;;;;11.82;59.12;95032.41;5071813;28;20519;-78
2023/04/08 08:41:03;;;;;;;20.77;15.40;;;;;;;11.75;58.56;95037.34;5071256;28;20502;-77
2023/04/08 08:43:32;;;;;;;26.37;17.10;;;;;;;11.75;61.04;95034.72;5071693;28;20530;-77
2023/04/08 08:45:59;;;;;;;25.73;16.90;;;;;;;11.37;63.73;95046.72;5071458;28;20523;-78
2023/04/08 08:48:26;;;;;;;21.60;17.20;;;;;;;11.29;64.15;95043.94;5071293;28;20513;-78
2023/04/08 08:50:55;;;;;;;23.40;17.43;;;;;;;11.15;63.79;95045.09;5071484;28;20444;-78
2023/04/08 08:53:22;;;;;;;21.80;16.67;;;;;;;10.96;65.11;95050.22;5071374;28;20531;-77
2023/04/08 08:55:49;;;;;;;25.47;18.40;;;;;;;11.02;65.23;95054.16;5071676;28;20448;-78
2023/04/08 08:58:16;;;;;;;31.37;21.33;;;;;;;10.88;66.22;95047.41;5071179;28;20851;-79
2023/04/08 09:00:43;;;;;;;37.07;21.57;;;;;;;10.81;67.33;95051.50;5071460;28;20437;-78
2023/04/08 09:03:18;;;;;;;25.00;19.20;;;;;;;10.66;68.53;95053.59;5052318;28;20435;-79
2023/04/08 09:05:48;;;;;;;33.70;21.80;;;;;;;10.44;70.50;95049.31;5074544;28;20493;-78
2023/04/08 09:08:30;;;;;;;26.30;20.57;;;;;;;10.46;70.56;95055.25;5075001;28;20433;-78
2023/04/08 09:11:11;;;;;;;28.20;21.33;;;;;;;10.43;71.18;95046.81;5039325;28;20429;-78
2023/04/08 09:13:38;;;;;;;26.67;18.80;;;;;;;10.55;71.22;95051.88;5074476;28;20888;-79
2023/04/08 09:16:07;;;;;;;26.27;17.70;;;;;;;10.53;69.57;95059.03;5074606;28;20536;-79
2023/04/08 09:18:35;;;;;;;23.13;17.50;;;;;;;10.44;69.10;95065.03;5074853;28;20479;-78
2023/04/08 09:21:02;;;;;;;26.27;18.53;;;;;;;10.47;69.24;95054.28;5074743;28;20464;-79
2023/04/08 09:23:41;;;;;;;26.70;20.77;;;;;;;10.47;69.53;95054.28;5074458;28;20440;-79
2023/04/08 09:26:09;;;;;;;25.17;18.60;;;;;;;10.63;69.04;95053.03;5074670;28;20448;-78
2023/04/08 09:28:36;;;;;;;22.03;16.17;;;;;;;10.75;66.77;95057.28;5074179;28;20539;-78
2023/04/08 09:31:19;;;;;;;28.90;20.40;;;;;;;10.84;68.00;95052.09;5074355;28;20440;-79
2023/04/08 09:33:47;;;;;;;28.03;18.63;;;;;;;11.11;68.50;95043.69;5074121;28;20476;-79
2023/04/08 09:36:14;;;;;;;19.57;15.20;;;;;;;11.30;64.89;95039.50;5039273;28;20449;-78
2023/04/08 09:38:42;;;;;;;23.00;16.20;;;;;;;11.55;64.68;95046.09;5074172;28;20480;-78
2023/04/08 09:41:13;;;;;;;20.27;14.93;;;;;;;11.79;62.18;95033.50;5074269;28;20445;-78
2023/04/08 09:43:47;;;;;;;20.63;16.30;;;;;;;11.98;62.18;95028.31;5074290;28;20468;-79
2023/04/08 09:46:16;;;;;;;19.97;14.60;;;;;;;12.26;60.31;95026.69;5074086;28;20439;-79
2023/04/08 09:48:50;;;;;;;27.43;17.40;;;;;;;12.46;59.95;95021.44;5074166;28;20444;-78
2023/04/08 09:51:20;;;;;;;20.83;16.17;;;;;;;12.49;60.92;95026.44;5074260;28;20448;-79
2023/04/08 09:53:55;;;;;;;23.17;14.30;;;;;;;12.40;59.91;95025.44;5074304;28;20437;-79
2023/04/08 09:56:22;;;;;;;23.60;15.93;;;;;;;12.53;60.80;95019.91;5040140;28;20453;-79
2023/04/08 09:58:54;;;;;;;16.97;13.50;;;;;;;12.10;60.68;95015.84;5074045;28;20816;-80
2023/04/08 10:01:27;;;;;;;20.13;16.93;;;;;;;12.22;63.67;95009.50;5074230;28;20839;-77
2023/04/08 10:03:56;;;;;;;28.87;17.47;;;;;;;12.16;63.81;95012.69;5038554;28;20452;-79
2023/04/08 10:06:28;;;;;;;23.50;16.30;;;;;;;12.06;61.68;95009.19;5074045;28;20638;-78
2023/04/08 10:08:57;;;;;;;22.40;17.37;;;;;;;12.23;62.97;95003.28;5039413;28;20485;-78
2023/04/08 10:11:24;;;;;;;22.80;17.10;;;;;;;12.19;62.59;95011.59;5073881;28;20478;-77
2023/04/08 10:13:51;;;;;;;26.03;18.40;;;;;;;11.99;63.37;95003.66;5073517;28;20448;-79
2023/04/08 10:16:20;;;;;;;28.63;16.70;;;;;;;11.83;64.10;95007.78;5073405;28;20476;-78
2023/04/08 10:18:48;;;;;;;18.53;15.13;;;;;;;11.49;64.29;94997.53;5071515;28;20998;-78
2023/04/08 10:21:35;;;;;;;24.43;16.23;;;;;;;11.67;63.65;95003.84;5073255;28;20460;-79
2023/04/08 10:24:07;;;;;;;22.00;15.23;;;;;;;11.70;63.64;94992.22;5054899;28;20433;-79
2023/04/08 10:26:36;;;;;;;18.63;14.57;;;;;;;11.83;63.07;94997.25;5038428;28;20899;-78
2023/04/08 10:29:33;;;;;;;22.40;15.70;;;;;;;11.79;62.57;94991.44;5054656;28;20440;-80
2023/04/08 10:32:00;;;;;;;21.00;16.13;;;;;;;11.95;63.79;94996.19;5010905;28;20526;-78
2023/04/08 10:34:27;;;;;;;23.20;17.00;;;;;;;12.03;63.97;94998.97;5011304;28;20448;-79
2023/04/08 10:36:55;;;;;;;25.83;17.60;;;;;;;12.03;62.84;94993.69;5010825;28;20447;-79
2023/04/08 10:39:26;;;;;;;19.07;14.60;;;;;;;12.19;60.98;94988.75;5011131;28;20825;-79
2023/04/08 10:41:52;;;;;;;21.50;14.73;;;;;;;12.07;61.33;95001.19;5011451;28;20451;-79
2023/04/08 10:44:20;;;;;;;21.77;15.77;;;;;;;12.13;62.89;94985.81;5010956;28;20461;-78
2023/04/08 10:46:48;;;;;;;22.33;14.93;;;;;;;12.19;60.85;94994.00;5010788;28;20979;-78
2023/04/08 10:49:16;;;;;;;20.27;15.73;;;;;;;12.21;61.30;94993.88;5010793;28;20543;-78
2023/04/08 10:51:44;;;;;;;20.27;14.83;;;;;;;11.91;59.47;94986.91;5010687;28;20534;-79
2023/04/08 10:54:13;;;;;;;19.03;13.83;;;;;;;11.90;60.91;94982.63;5010819;28;20476;-79
2023/04/08 10:56:46;;;;;;;20.13;17.03;;;;;;;11.95;60.15;94989.13;5010669;28;20452;-78
2023/04/08 10:59:15;;;;;;;17.93;12.03;;;;;;;11.77;59.96;94988.91;5010391;28;20491;-78
2023/04/08 11:01:43;;;;;;;17.17;13.13;;;;;;;11.77;59.74;94978.41;5010890;28;20838;-78
2023/04/08 11:04:18;;;;;;;16.97;12.30;;;;;;;11.93;58.79;94971.81;5010781;28;20444;-78
2023/04/08 11:06:47;;;;;;;14.47;12.03;;;;;;;12.03;59.26;94980.56;5010316;28;20482;-79
2023/04/08 11:09:15;;;;;;;22.90;13.90;;;;;;;11.48;59.76;94952.03;5047328;28;20461;-78
2023/04/08 11:11:44;;;;;;;16.43;12.97;;;;;;;11.69;60.64;94954.59;5072374;28;20447;-79
2023/04/08 11:14:16;;;;;;;16.70;12.60;;;;;;;11.57;60.89;94960.94;5072853;28;20444;-79
2023/04/08 11:16:43;;;;;;;16.80;13.20;;;;;;;11.49;62.48;94960.75;5072435;28;20481;-77
2023/04/08 11:19:10;;;;;;;24.87;14.33;;;;;;;11.34;65.34;94962.09;5072492;28;20480;-79
2023/04/08 11:21:37;;;;;;;17.03;12.90;;;;;;;11.21;63.02;94956.22;5072477;28;20436;-79
2023/04/08 11:24:10;;;;;;;18.90;13.97;;;;;;;11.30;65.11;94968.59;5072188;28;20451;-78
2023/04/08 11:26:38;;;;;;;23.27;15.47;;;;;;;11.45;67.55;94957.56;5072444;28;20506;-79